createdAt,value
2019-01-09T00:00:59.321Z,0.75
2019-01-09T00:03:30.964Z,0.90
2019-01-09T00:06:01.006Z,0.65
2019-01-09T00:08:31.226Z,0.57
2019-01-09T00:11:01.502Z,1.30
2019-01-09T00:13:33.273Z,0.60
2019-01-09T00:16:03.595Z,0.55
2019-01-09T00:18:33.860Z,0.57
2019-01-09T00:21:04.509Z,0.60
2019-01-09T00:23:34.793Z,0.60
2019-01-09T00:26:04.825Z,1.60
2019-01-09T00:28:35.180Z,0.50
2019-01-09T00:31:05.629Z,0.57
2019-01-09T00:33:35.720Z,0.62
2019-01-09T00:36:06.365Z,0.93
2019-01-09T00:38:36.471Z,0.65
2019-01-09T00:41:07.284Z,0.47
2019-01-09T00:43:37.573Z,0.50
2019-01-09T00:46:08.006Z,0.55
2019-01-09T00:48:38.141Z,0.70
2019-01-09T00:51:08.571Z,0.40
2019-01-09T00:53:38.917Z,5.10
2019-01-09T00:56:09.298Z,0.40
2019-01-09T00:58:39.337Z,0.50
2019-01-09T01:01:10.032Z,0.93
2019-01-09T01:04:23.216Z,0.40
2019-01-09T01:07:42.772Z,0.40
2019-01-09T01:10:56.380Z,0.50
2019-01-09T01:14:05.836Z,0.60
2019-01-09T01:17:16.406Z,0.60
2019-01-09T01:20:04.345Z,0.50
2019-01-09T01:23:18.703Z,0.43
2019-01-09T01:26:20.601Z,0.40
2019-01-09T01:29:23.516Z,0.40
2019-01-09T01:32:06.171Z,0.40
2019-01-09T01:35:04.398Z,1.05
2019-01-09T01:38:24.009Z,0.57
2019-01-09T01:41:07.031Z,0.50
2019-01-09T01:43:52.349Z,0.47
2019-01-09T01:47:05.988Z,0.40
2019-01-09T01:50:01.789Z,0.40
2019-01-09T01:53:20.298Z,0.50
2019-01-09T01:56:37.681Z,0.57
2019-01-09T01:59:38.709Z,0.40
2019-01-09T02:02:31.608Z,0.50
2019-01-09T03:48:35.684Z,0.30
2019-01-09T03:51:05.730Z,0.45
2019-01-09T03:53:35.804Z,0.40
2019-01-09T03:56:05.866Z,0.47
2019-01-09T03:58:36.426Z,0.30
2019-01-09T04:01:08.309Z,0.40
2019-01-09T04:03:38.397Z,0.40
2019-01-09T04:06:08.577Z,0.40
2019-01-09T04:08:38.624Z,0.30
2019-01-09T04:11:08.712Z,0.40
2019-01-09T04:13:38.985Z,0.30
2019-01-09T04:16:09.084Z,0.30
2019-01-09T04:18:39.506Z,0.30
2019-01-09T04:21:09.814Z,0.30
2019-01-09T04:23:40.150Z,0.40
2019-01-09T04:26:10.485Z,0.30
2019-01-09T04:28:40.521Z,1.15
2019-01-09T04:31:11.025Z,0.40
2019-01-09T04:33:41.305Z,0.30
2019-01-09T04:36:11.388Z,0.30
2019-01-09T04:38:42.920Z,0.40
2019-01-09T04:41:13.199Z,0.73
2019-01-09T04:43:43.525Z,0.30
2019-01-09T04:46:13.797Z,0.37
2019-01-09T04:48:44.252Z,0.30
2019-01-09T04:51:14.288Z,0.30
2019-01-09T04:53:44.394Z,0.30
2019-01-09T04:56:14.676Z,0.37
2019-01-09T04:58:44.770Z,0.40
2019-01-09T05:01:14.845Z,0.40
2019-01-09T05:03:44.926Z,0.50
2019-01-09T05:06:15.198Z,0.68
2019-01-09T05:08:45.497Z,0.40
2019-01-09T05:11:15.689Z,0.30
2019-01-09T05:13:46.129Z,0.30
2019-01-09T05:16:16.190Z,0.40
2019-01-09T05:18:46.773Z,0.40
2019-01-09T05:21:16.805Z,0.40
2019-01-09T05:23:48.682Z,0.30
2019-01-09T05:26:18.797Z,0.40
2019-01-09T05:28:49.178Z,0.30
2019-01-09T05:31:19.469Z,0.40
2019-01-09T05:33:49.541Z,0.35
2019-01-09T05:36:19.629Z,0.30
2019-01-09T05:38:49.888Z,0.30
2019-01-09T05:41:21.151Z,1.35
2019-01-09T05:43:51.685Z,0.40
2019-01-09T05:46:22.038Z,0.40
2019-01-09T05:48:52.320Z,0.40
2019-01-09T05:51:24.058Z,0.30
2019-01-09T05:53:54.093Z,0.40
2019-01-09T05:56:24.909Z,0.60
2019-01-09T05:58:54.940Z,1.37
2019-01-09T06:01:25.025Z,0.40
2019-01-09T06:03:55.295Z,0.35
2019-01-09T06:06:25.585Z,13.13
2019-01-09T06:08:56.152Z,0.40
2019-01-09T06:11:26.421Z,0.40
2019-01-09T06:13:56.985Z,0.40
2019-01-09T06:16:27.014Z,0.30
2019-01-09T06:18:57.872Z,0.30
2019-01-09T06:21:27.892Z,0.30
2019-01-09T06:23:58.019Z,0.30
2019-01-09T06:26:28.353Z,0.30
2019-01-09T06:28:58.627Z,0.30
2019-01-09T06:31:28.644Z,0.30
2019-01-09T06:33:58.729Z,0.30
2019-01-09T06:36:29.723Z,0.30
2019-01-09T06:38:59.754Z,0.30
2019-01-09T06:41:29.838Z,0.30
2019-01-09T06:43:59.864Z,0.30
2019-01-09T06:46:29.896Z,0.30
2019-01-09T06:49:00.422Z,0.30
2019-01-09T06:51:30.461Z,0.30
2019-01-09T06:54:00.948Z,0.30
2019-01-09T06:56:31.264Z,0.30
2019-01-09T06:59:01.353Z,0.30
2019-01-09T07:01:31.620Z,0.30
2019-01-09T07:04:01.928Z,0.30
2019-01-09T07:06:32.017Z,0.30
2019-01-09T07:09:02.361Z,0.30
2019-01-09T07:11:33.844Z,0.30
2019-01-09T07:14:03.945Z,0.30
2019-01-09T07:16:33.968Z,0.30
2019-01-09T07:19:04.294Z,0.30
2019-01-09T07:21:34.333Z,0.30
2019-01-09T07:24:05.036Z,0.30
2019-01-09T07:26:35.316Z,0.30
2019-01-09T07:29:05.688Z,0.30
2019-01-09T07:31:36.011Z,0.30
2019-01-09T07:34:06.326Z,0.30
2019-01-09T07:36:36.762Z,0.30
2019-01-09T07:39:07.401Z,0.30
2019-01-09T07:41:37.502Z,0.30
2019-01-09T07:44:07.554Z,0.30
2019-01-09T07:49:03.006Z,0.30
2019-01-09T07:51:33.103Z,0.30
2019-01-09T07:54:03.229Z,0.30
2019-01-09T07:56:33.561Z,0.30
2019-01-09T07:59:04.167Z,0.30
2019-01-09T08:01:34.177Z,0.30
2019-01-09T08:04:04.549Z,0.30
2019-01-09T08:06:34.612Z,0.30
2019-01-09T08:09:06.915Z,0.30
2019-01-09T08:11:36.992Z,0.30
2019-01-09T08:14:07.495Z,0.30
2019-01-09T08:16:37.806Z,0.30
2019-01-09T08:19:07.826Z,0.30
2019-01-09T08:21:37.903Z,0.30
2019-01-09T08:24:07.980Z,0.30
2019-01-09T08:26:38.057Z,0.30
2019-01-09T08:29:08.087Z,0.30
2019-01-09T08:31:38.432Z,0.30
2019-01-09T08:34:08.469Z,0.30
2019-01-09T08:36:38.547Z,0.30
2019-01-09T08:39:08.876Z,0.30
2019-01-09T08:41:38.988Z,0.30
2019-01-09T08:44:09.065Z,0.30
2019-01-09T08:46:39.097Z,0.30
2019-01-09T08:49:09.189Z,0.30
2019-01-09T08:51:39.216Z,0.30
2019-01-09T08:54:09.537Z,0.30
2019-01-09T08:56:39.152Z,0.30
2019-01-09T08:59:09.035Z,0.30
2019-01-09T09:01:39.052Z,0.30
2019-01-09T09:04:09.128Z,0.30
2019-01-09T09:06:39.396Z,0.30
2019-01-09T09:09:09.464Z,0.30
2019-01-09T09:11:39.552Z,0.30
2019-01-09T09:14:09.587Z,0.30
2019-01-09T09:16:39.887Z,0.30
2019-01-09T09:19:11.412Z,0.30
2019-01-09T09:21:41.435Z,0.30
2019-01-09T09:24:11.776Z,0.30
2019-01-09T09:26:42.032Z,0.30
2019-01-09T09:29:12.108Z,0.30
2019-01-09T09:31:42.136Z,0.30
2019-01-09T09:34:12.452Z,0.30
2019-01-09T09:36:42.704Z,0.30
2019-01-09T09:39:13.013Z,0.30
2019-01-09T09:41:43.036Z,0.30
2019-01-09T09:44:13.628Z,0.30
2019-01-09T09:46:43.882Z,0.30
2019-01-09T09:49:13.973Z,0.30
2019-01-09T09:51:44.492Z,0.30
2019-01-09T09:54:14.833Z,0.30
2019-01-09T09:56:44.861Z,0.30
2019-01-09T09:59:15.435Z,0.30
2019-01-09T10:01:46.441Z,0.30
2019-01-09T10:04:16.783Z,0.30
2019-01-09T10:06:47.277Z,0.30
2019-01-09T10:09:17.837Z,0.30
2019-01-09T10:11:47.877Z,0.30
2019-01-09T10:14:18.441Z,0.30
2019-01-09T10:16:48.472Z,0.30
2019-01-09T10:19:18.616Z,0.30
2019-01-09T10:21:48.637Z,0.30
2019-01-09T10:24:18.712Z,0.30
2019-01-09T10:26:49.021Z,0.30
2019-01-09T10:29:19.045Z,0.30
2019-01-09T10:31:49.115Z,0.30
2019-01-09T10:34:19.602Z,0.30
2019-01-09T10:36:49.673Z,0.30
2019-01-09T10:39:20.030Z,0.30
2019-01-09T10:41:50.056Z,0.30
2019-01-09T10:44:20.144Z,0.30
2019-01-09T10:46:50.434Z,0.30
2019-01-09T10:49:20.512Z,0.30
2019-01-09T10:51:51.004Z,0.30
2019-01-09T10:54:21.089Z,0.30
2019-01-09T10:56:51.128Z,0.30
2019-01-09T10:59:21.212Z,0.30
2019-01-09T11:01:51.248Z,0.30
2019-01-09T11:04:21.821Z,0.28
2019-01-09T11:06:52.100Z,0.30
2019-01-09T11:09:22.176Z,0.30
2019-01-09T11:11:52.441Z,0.30
2019-01-09T11:14:22.526Z,0.30
2019-01-09T11:16:53.537Z,0.30
2019-01-09T11:19:23.921Z,0.30
2019-01-09T11:21:53.957Z,0.30
2019-01-09T11:24:25.297Z,0.30
2019-01-09T11:26:55.333Z,0.30
2019-01-09T11:29:25.647Z,0.30
2019-01-09T11:31:55.734Z,0.30
2019-01-09T11:34:25.988Z,0.30
2019-01-09T11:36:56.087Z,0.30
2019-01-09T11:39:26.106Z,0.30
2019-01-09T11:41:56.179Z,0.30
2019-01-09T11:44:26.200Z,0.30
2019-01-09T11:46:56.260Z,0.30
2019-01-09T11:49:26.852Z,0.30
2019-01-09T11:51:57.142Z,0.30
2019-01-09T11:54:27.219Z,0.30
2019-01-09T11:56:57.261Z,0.30
2019-01-09T11:59:27.597Z,0.30
2019-01-09T12:01:57.611Z,0.30
2019-01-09T12:04:27.691Z,0.30
2019-01-09T12:06:59.189Z,0.30
2019-01-09T12:09:29.510Z,0.30
2019-01-09T12:11:59.548Z,0.30
2019-01-09T12:14:29.911Z,0.30
2019-01-09T12:16:59.966Z,0.30
2019-01-09T12:19:30.298Z,0.30
2019-01-09T12:22:00.572Z,0.30
2019-01-09T12:24:30.936Z,0.30
2019-01-09T12:27:01.187Z,0.30
2019-01-09T12:29:31.277Z,0.30
2019-01-09T12:32:01.308Z,0.30
2019-01-09T12:34:32.168Z,0.30
2019-01-09T12:37:02.209Z,0.30
2019-01-09T12:39:32.287Z,0.30
2019-01-09T12:42:02.328Z,0.30
2019-01-09T12:44:32.668Z,0.30
2019-01-09T12:47:02.948Z,0.30
2019-01-09T12:49:33.260Z,0.30
2019-01-09T12:52:03.300Z,0.30
2019-01-09T12:54:33.380Z,0.30
2019-01-09T12:57:03.416Z,0.30
2019-01-09T12:59:33.740Z,0.30
2019-01-09T13:02:04.016Z,0.30
2019-01-09T13:04:34.095Z,0.30
2019-01-09T13:07:04.672Z,0.30
2019-01-09T13:09:34.756Z,0.30
2019-01-09T13:12:04.787Z,0.30
2019-01-09T13:14:34.884Z,0.30
2019-01-09T13:17:11.871Z,0.30
2019-01-09T13:19:37.561Z,0.30
2019-01-09T13:22:07.569Z,0.30
2019-01-09T13:24:37.627Z,0.30
2019-01-09T13:27:07.655Z,0.30
2019-01-09T13:29:38.904Z,0.30
2019-01-09T13:32:09.189Z,0.30
2019-01-09T13:34:39.547Z,0.30
2019-01-09T13:37:09.852Z,0.30
2019-01-09T13:39:39.876Z,0.30
2019-01-09T13:42:09.955Z,0.30
2019-01-09T13:44:40.477Z,0.30
2019-01-09T13:47:10.558Z,0.30
2019-01-09T13:49:40.588Z,0.30
2019-01-09T13:52:11.944Z,0.30
2019-01-09T13:54:41.988Z,0.30
2019-01-09T13:57:12.580Z,0.30
2019-01-09T13:59:42.620Z,0.30
2019-01-09T14:02:12.985Z,0.30
2019-01-09T14:04:43.475Z,0.30
2019-01-09T14:07:13.881Z,0.30
2019-01-09T14:09:43.909Z,0.30
2019-01-09T14:12:14.225Z,0.30
2019-01-09T14:14:44.265Z,0.30
2019-01-09T14:17:14.364Z,0.30
2019-01-09T14:19:44.411Z,0.30
2019-01-09T14:22:14.485Z,0.30
2019-01-09T14:24:44.519Z,0.30
2019-01-09T14:27:14.835Z,0.30
2019-01-09T14:29:44.951Z,0.30
2019-01-09T14:32:15.307Z,0.30
2019-01-09T14:34:45.360Z,0.50
2019-01-09T14:37:15.437Z,0.30
2019-01-09T14:39:48.129Z,0.30
2019-01-09T14:42:17.997Z,0.30
2019-01-09T14:44:48.565Z,0.30
2019-01-09T14:47:18.816Z,0.30
2019-01-09T14:49:49.160Z,0.30
2019-01-09T14:52:19.184Z,0.30
2019-01-09T14:54:49.492Z,0.30
2019-01-09T14:57:19.526Z,0.30
2019-01-09T14:59:50.053Z,0.30
2019-01-09T15:04:43.499Z,0.30
2019-01-09T15:07:15.558Z,0.30
2019-01-09T15:09:45.625Z,0.30
2019-01-09T15:12:15.703Z,0.30
2019-01-09T15:14:45.951Z,0.50
2019-01-09T15:17:16.023Z,0.30
2019-01-09T15:19:46.054Z,0.30
2019-01-09T15:22:16.393Z,0.30
2019-01-09T15:24:46.880Z,0.30
2019-01-09T15:27:17.256Z,0.30
2019-01-09T15:29:47.519Z,0.30
2019-01-09T15:32:17.838Z,0.30
2019-01-09T15:34:47.916Z,0.30
2019-01-09T15:37:17.951Z,0.30
2019-01-09T15:39:48.294Z,0.30
2019-01-09T15:42:18.335Z,0.30
2019-01-09T15:44:48.409Z,0.30
2019-01-09T15:47:19.400Z,0.30
2019-01-09T15:49:50.458Z,0.30
2019-01-09T15:52:20.784Z,4.20
2019-01-09T15:54:51.852Z,0.30
2019-01-09T15:57:21.992Z,0.30
2019-01-09T15:59:52.591Z,0.30
2019-01-09T16:02:22.620Z,0.30
2019-01-09T16:04:53.163Z,0.30
2019-01-09T16:07:23.728Z,0.30
2019-01-09T16:09:54.058Z,0.30
2019-01-09T16:12:24.097Z,0.30
2019-01-09T16:14:54.180Z,0.30
2019-01-09T16:17:24.458Z,8.57
2019-01-09T16:19:54.788Z,0.30
2019-01-09T16:22:25.521Z,0.30
2019-01-09T16:24:56.018Z,0.30
2019-01-09T16:27:26.064Z,0.30
2019-01-09T16:29:56.700Z,0.30
2019-01-09T16:32:27.052Z,0.30
2019-01-09T16:34:57.132Z,0.30
2019-01-09T16:37:27.177Z,0.30
2019-01-09T16:39:57.269Z,0.30
2019-01-09T16:42:27.347Z,1.75
2019-01-09T16:44:57.500Z,0.30
2019-01-09T16:47:27.797Z,0.30
2019-01-09T16:49:57.875Z,0.30
2019-01-09T16:52:27.928Z,0.30
2019-01-09T16:54:58.237Z,0.30
2019-01-09T16:57:28.536Z,0.30
2019-01-09T16:59:58.995Z,0.30
2019-01-09T17:02:29.040Z,0.30
2019-01-09T17:05:00.793Z,0.30
2019-01-09T17:07:30.885Z,0.30
2019-01-09T17:10:01.456Z,0.30
2019-01-09T17:12:31.491Z,0.30
2019-01-09T17:15:01.793Z,0.30
2019-01-09T17:17:32.125Z,0.30
2019-01-09T17:20:02.693Z,0.30
2019-01-09T17:22:33.313Z,1.03
2019-01-09T17:25:03.350Z,0.20
2019-01-09T17:27:33.645Z,0.30
2019-01-09T17:30:05.665Z,4.17
2019-01-09T17:32:35.934Z,0.30
2019-01-09T17:35:06.659Z,0.30
2019-01-09T17:37:36.693Z,0.30
2019-01-09T17:40:07.668Z,0.30
2019-01-09T17:42:37.713Z,0.40
2019-01-09T17:45:08.867Z,0.30
2019-01-09T17:47:39.399Z,0.30
2019-01-09T17:50:21.949Z,1.53
2019-01-09T17:52:52.223Z,0.30
2019-01-09T17:55:22.441Z,0.30
2019-01-09T17:57:53.006Z,0.30
2019-01-09T18:00:28.757Z,0.20
2019-01-09T18:02:58.857Z,0.30
2019-01-09T18:05:28.918Z,0.30
2019-01-09T18:07:59.213Z,0.30
2019-01-09T18:10:29.596Z,0.30
2019-01-09T18:12:59.928Z,0.30
2019-01-09T18:15:29.984Z,0.28
2019-01-09T18:18:00.060Z,0.30
2019-01-09T18:20:30.603Z,0.30
2019-01-09T18:23:00.689Z,0.50
2019-01-09T18:25:31.233Z,0.30
2019-01-09T18:28:01.550Z,0.30
2019-01-09T18:30:41.949Z,0.30
2019-01-09T18:33:41.835Z,0.40
2019-01-09T18:36:29.775Z,0.30
2019-01-09T18:39:48.338Z,0.20
2019-01-09T18:42:49.510Z,0.30
2019-01-09T18:46:09.917Z,0.30
2019-01-09T18:49:05.588Z,0.40
2019-01-09T18:52:02.953Z,1.15
2019-01-09T18:54:33.279Z,0.30
2019-01-09T18:57:03.573Z,0.30
2019-01-09T18:59:33.867Z,0.30
2019-01-09T19:02:04.212Z,0.30
2019-01-09T19:04:34.289Z,0.30
2019-01-09T19:07:06.905Z,0.30
2019-01-09T19:09:37.386Z,0.30
2019-01-09T19:12:07.838Z,0.47
2019-01-09T19:14:37.948Z,0.30
2019-01-09T19:17:08.574Z,0.30
2019-01-09T19:19:39.108Z,0.30
2019-01-09T19:22:09.512Z,0.30
2019-01-09T19:24:39.541Z,2.27
2019-01-09T19:27:09.636Z,0.30
2019-01-09T19:29:40.372Z,0.30
2019-01-09T19:32:10.393Z,0.30
2019-01-09T19:34:41.129Z,0.30
2019-01-09T19:37:11.467Z,0.30
2019-01-09T19:39:42.409Z,0.30
2019-01-09T19:42:12.701Z,0.30
2019-01-09T19:44:42.869Z,0.30
2019-01-09T19:47:13.124Z,0.30
2019-01-09T19:49:43.435Z,0.30
2019-01-09T19:52:13.705Z,0.23
2019-01-09T19:54:44.026Z,0.30
2019-01-09T19:57:14.129Z,0.30
2019-01-09T19:59:44.227Z,0.30
2019-01-09T20:02:14.320Z,0.30
2019-01-09T20:04:44.496Z,0.50
2019-01-09T20:07:14.537Z,0.30
2019-01-09T20:09:46.180Z,0.30
2019-01-09T20:12:16.494Z,2.50
2019-01-09T20:14:47.117Z,0.30
2019-01-09T20:17:17.196Z,0.30
2019-01-09T20:19:47.597Z,0.30
2019-01-09T20:22:17.905Z,0.30
2019-01-09T20:24:48.220Z,0.30
2019-01-09T20:27:18.303Z,0.30
2019-01-09T20:29:48.367Z,0.30
2019-01-09T20:32:19.068Z,0.30
2019-01-09T20:34:49.657Z,0.30
2019-01-09T20:37:19.701Z,0.30
2019-01-09T20:39:49.769Z,0.30
2019-01-09T20:42:20.140Z,0.30
2019-01-09T20:44:50.502Z,0.30
2019-01-09T20:47:20.852Z,0.30
2019-01-09T20:49:51.149Z,0.30
2019-01-09T20:52:21.559Z,1.05
2019-01-09T20:54:52.489Z,0.30
2019-01-09T20:57:22.973Z,0.30
2019-01-09T20:59:53.087Z,0.30
2019-01-09T21:02:23.714Z,0.30
2019-01-09T21:04:54.117Z,0.30
2019-01-09T21:07:24.688Z,0.30
2019-01-09T21:09:55.150Z,0.30
2019-01-09T21:12:25.821Z,0.30
2019-01-09T21:14:56.074Z,0.30
2019-01-09T21:17:26.419Z,0.30
2019-01-09T21:19:56.725Z,1.13
2019-01-09T21:22:27.033Z,0.30
2019-01-09T21:24:57.308Z,0.30
2019-01-09T21:27:27.326Z,0.30
2019-01-09T21:29:57.396Z,2.15
2019-01-09T21:32:27.434Z,0.30
2019-01-09T21:34:57.980Z,0.30
2019-01-09T21:37:28.080Z,0.30
2019-01-09T21:39:58.165Z,0.30
2019-01-09T21:42:28.429Z,0.30
2019-01-09T21:44:58.737Z,0.30
2019-01-09T21:47:28.768Z,0.30
2019-01-09T21:49:59.087Z,0.30
2019-01-09T21:52:29.356Z,0.30
2019-01-09T21:54:59.668Z,0.30
2019-01-09T21:57:30.212Z,0.30
2019-01-09T22:00:00.248Z,0.30
2019-01-09T22:02:30.308Z,0.30
2019-01-09T22:05:00.389Z,0.30
2019-01-09T22:07:30.742Z,0.30
2019-01-09T22:10:01.187Z,0.30
2019-01-09T22:12:31.208Z,0.30
2019-01-09T22:15:01.767Z,0.30
2019-01-09T22:17:32.260Z,0.30
2019-01-09T22:20:02.533Z,0.30
2019-01-09T22:22:32.565Z,0.30
2019-01-09T22:25:02.801Z,12.10
2019-01-09T22:27:32.841Z,0.30
2019-01-09T22:30:03.112Z,0.30
2019-01-09T22:32:33.469Z,0.30
2019-01-09T22:35:03.948Z,0.27
2019-01-09T22:37:33.984Z,0.30
2019-01-09T22:40:04.971Z,0.30
2019-01-09T22:42:35.034Z,1.27
2019-01-09T22:45:06.960Z,0.30
2019-01-09T22:47:37.064Z,0.30
2019-01-09T22:50:09.703Z,0.30
2019-01-09T22:52:39.990Z,0.30
2019-01-09T22:55:10.568Z,0.30
2019-01-09T22:57:40.840Z,0.30
2019-01-09T23:00:29.737Z,0.30
2019-01-09T23:03:00.384Z,0.30
2019-01-09T23:05:31.049Z,0.30
2019-01-09T23:08:01.155Z,0.30
2019-01-09T23:10:31.577Z,0.30
2019-01-09T23:13:01.685Z,0.30
2019-01-09T23:15:32.304Z,0.30
2019-01-09T23:18:02.485Z,0.30
2019-01-09T23:20:32.898Z,0.30
2019-01-09T23:23:03.014Z,0.30
2019-01-09T23:25:33.615Z,7.00
2019-01-09T23:28:03.997Z,7.67
2019-01-09T23:30:34.303Z,12.82
2019-01-09T23:33:04.613Z,8.05
2019-01-09T23:35:34.958Z,8.03
2019-01-09T23:38:05.060Z,13.68
2019-01-09T23:40:35.486Z,10.25
2019-01-09T23:43:07.037Z,12.18
2019-01-09T23:45:37.592Z,14.63
2019-01-09T23:48:07.864Z,9.88
2019-01-09T23:50:38.432Z,13.45
2019-01-09T23:53:08.462Z,11.00
2019-01-09T23:55:38.545Z,6.30
2019-01-09T23:58:09.276Z,9.90
